createdAt,value
2022-08-07T00:01:43.105Z,21.40
2022-08-07T00:03:50.131Z,21.40
2022-08-07T00:06:16.683Z,21.40
2022-08-07T00:08:44.374Z,21.30
2022-08-07T00:11:11.145Z,21.30
2022-08-07T00:13:40.513Z,21.30
2022-08-07T00:16:11.773Z,21.20
2022-08-07T00:18:44.122Z,21.20
2022-08-07T00:21:57.481Z,21.20
2022-08-07T00:23:57.559Z,21.10
2022-08-07T00:26:49.593Z,21.10
2022-08-07T00:29:10.426Z,21.00
2022-08-07T00:31:42.103Z,21.00
2022-08-07T00:34:09.399Z,21.00
2022-08-07T00:36:42.796Z,20.90
2022-08-07T00:39:12.808Z,20.90
2022-08-07T00:41:53.535Z,20.90
2022-08-07T00:44:27.731Z,20.80
2022-08-07T00:46:54.483Z,20.80
2022-08-07T00:49:24.971Z,20.80
2022-08-07T00:52:08.802Z,20.70
2022-08-07T00:54:36.422Z,20.70
2022-08-07T00:57:07.311Z,20.70
2022-08-07T00:59:37.468Z,20.60
2022-08-07T01:02:05.875Z,20.60
2022-08-07T01:04:42.993Z,20.60
2022-08-07T01:07:10.708Z,20.50
2022-08-07T01:10:04.635Z,20.50
2022-08-07T01:12:30.131Z,20.50
2022-08-07T01:15:00.981Z,20.50
2022-08-07T01:17:28.750Z,20.40
2022-08-07T01:19:58.425Z,20.40
2022-08-07T01:22:29.172Z,20.40
2022-08-07T01:24:56.096Z,20.30
2022-08-07T01:27:22.579Z,20.30
2022-08-07T01:29:50.662Z,20.30
2022-08-07T01:32:17.656Z,20.20
2022-08-07T01:34:47.309Z,20.20
2022-08-07T01:37:17.403Z,20.20
2022-08-07T01:39:46.867Z,20.20
2022-08-07T01:42:38.884Z,20.10
2022-08-07T01:45:04.840Z,20.10
2022-08-07T01:48:20.040Z,20.00
2022-08-07T01:50:29.217Z,20.00
2022-08-07T01:52:57.060Z,20.00
2022-08-07T01:55:34.970Z,19.90
2022-08-07T01:58:06.659Z,19.90
2022-08-07T02:00:58.068Z,19.90
2022-08-07T02:03:48.782Z,19.90
2022-08-07T02:06:31.197Z,19.80
2022-08-07T02:09:00.048Z,19.80
2022-08-07T02:11:30.944Z,19.80
2022-08-07T02:14:35.466Z,19.70
2022-08-07T02:17:00.972Z,19.70
2022-08-07T02:20:05.156Z,19.70
2022-08-07T02:22:20.080Z,19.60
2022-08-07T02:24:48.519Z,19.60
2022-08-07T02:27:17.109Z,19.60
2022-08-07T02:29:54.239Z,19.60
2022-08-07T02:32:23.482Z,19.50
2022-08-07T02:34:53.776Z,19.50
2022-08-07T02:37:20.932Z,19.50
2022-08-07T02:40:02.547Z,19.40
2022-08-07T02:42:35.576Z,19.40
2022-08-07T02:45:51.903Z,19.40
2022-08-07T02:47:50.472Z,19.40
2022-08-07T02:50:18.421Z,19.30
2022-08-07T02:52:47.819Z,19.30
2022-08-07T02:56:02.417Z,19.30
2022-08-07T02:58:21.573Z,19.20
2022-08-07T03:00:50.518Z,19.20
2022-08-07T03:03:22.514Z,19.20
2022-08-07T03:05:50.775Z,19.10
2022-08-07T03:08:26.894Z,19.10
2022-08-07T03:10:56.632Z,19.10
2022-08-07T03:13:23.443Z,19.00
2022-08-07T03:15:56.235Z,19.00
2022-08-07T03:18:34.856Z,19.00
2022-08-07T03:21:04.191Z,19.00
2022-08-07T03:23:33.976Z,18.90
2022-08-07T03:26:23.385Z,18.90
2022-08-07T03:28:51.599Z,18.90
2022-08-07T03:31:19.575Z,18.90
2022-08-07T03:33:53.768Z,18.80
2022-08-07T03:36:20.707Z,18.80
2022-08-07T03:38:53.529Z,18.80
2022-08-07T03:41:20.113Z,18.80
2022-08-07T03:44:06.829Z,18.70
2022-08-07T03:46:37.479Z,18.70
2022-08-07T03:49:24.006Z,18.70
2022-08-07T03:51:55.156Z,18.70
2022-08-07T03:54:36.022Z,18.60
2022-08-07T03:58:34.045Z,18.60
2022-08-07T04:00:03.851Z,18.50
2022-08-07T04:02:30.881Z,18.50
2022-08-07T04:04:58.274Z,18.50
2022-08-07T04:07:25.573Z,18.50
2022-08-07T04:10:03.008Z,18.40
2022-08-07T04:12:30.501Z,18.40
2022-08-07T04:14:58.302Z,18.40
2022-08-07T04:18:30.827Z,18.40
2022-08-07T04:20:14.017Z,18.30
2022-08-07T04:22:40.804Z,18.30
2022-08-07T04:25:21.189Z,18.30
2022-08-07T04:28:00.287Z,18.20
2022-08-07T04:30:39.507Z,18.20
2022-08-07T04:33:14.007Z,18.20
2022-08-07T04:35:43.936Z,18.20
2022-08-07T04:38:17.243Z,18.10
2022-08-07T04:40:52.004Z,18.10
2022-08-07T04:44:10.026Z,18.10
2022-08-07T04:46:34.828Z,18.10
2022-08-07T04:49:17.604Z,18.00
2022-08-07T04:51:49.590Z,18.00
2022-08-07T04:54:19.593Z,18.00
2022-08-07T04:58:11.959Z,18.00
2022-08-07T05:00:24.304Z,17.90
2022-08-07T05:03:59.713Z,17.90
2022-08-07T05:06:16.311Z,17.90
2022-08-07T05:09:01.063Z,17.90
2022-08-07T05:11:57.333Z,17.80
2022-08-07T05:14:55.284Z,17.80
2022-08-07T05:17:17.480Z,17.80
2022-08-07T05:20:06.556Z,17.80
2022-08-07T05:22:37.359Z,17.80
2022-08-07T05:25:08.789Z,17.70
2022-08-07T05:28:02.943Z,17.70
2022-08-07T05:30:32.624Z,17.70
2022-08-07T05:33:02.598Z,17.70
2022-08-07T05:35:33.355Z,17.70
2022-08-07T05:38:08.349Z,17.70
2022-08-07T05:40:37.444Z,17.70
2022-08-07T05:43:17.823Z,17.70
2022-08-07T05:45:46.731Z,17.70
2022-08-07T05:48:15.102Z,17.70
2022-08-07T05:50:42.708Z,17.80
2022-08-07T05:54:13.218Z,17.80
2022-08-07T05:56:02.340Z,17.90
2022-08-07T05:58:36.760Z,17.90
2022-08-07T06:01:05.985Z,18.00
2022-08-07T06:03:56.646Z,18.00
2022-08-07T06:06:29.760Z,18.10
2022-08-07T06:09:01.260Z,18.20
2022-08-07T06:11:32.535Z,18.20
2022-08-07T06:14:12.652Z,18.20
2022-08-07T06:16:44.065Z,18.30
2022-08-07T06:19:17.871Z,18.30
2022-08-07T06:22:15.682Z,18.50
2022-08-07T06:24:52.645Z,18.50
2022-08-07T06:27:44.045Z,18.60
2022-08-07T06:30:32.173Z,18.70
2022-08-07T06:32:57.526Z,18.70
2022-08-07T06:35:24.032Z,18.80
2022-08-07T06:37:58.287Z,18.80
2022-08-07T06:40:34.044Z,19.00
2022-08-07T06:43:02.803Z,19.10
2022-08-07T06:45:35.769Z,19.10
2022-08-07T06:48:02.766Z,19.10
2022-08-07T06:50:30.469Z,19.10
2022-08-07T06:52:57.295Z,19.10
2022-08-07T06:55:31.422Z,19.30
2022-08-07T06:58:12.914Z,19.20
2022-08-07T07:00:43.752Z,19.30
2022-08-07T07:03:14.480Z,19.40
2022-08-07T07:06:03.282Z,19.40
2022-08-07T07:08:33.164Z,19.50
2022-08-07T07:11:00.935Z,19.60
2022-08-07T07:13:56.009Z,19.60
2022-08-07T07:16:21.907Z,19.70
2022-08-07T07:18:50.122Z,19.70
2022-08-07T07:21:22.053Z,19.80
2022-08-07T07:24:10.384Z,19.80
2022-08-07T07:26:39.665Z,19.80
2022-08-07T07:29:40.634Z,20.10
2022-08-07T07:32:00.493Z,20.20
2022-08-07T07:34:31.152Z,20.40
2022-08-07T07:37:14.317Z,20.40
2022-08-07T07:39:54.268Z,20.60
2022-08-07T07:42:25.764Z,20.80
2022-08-07T07:45:02.654Z,20.90
2022-08-07T07:47:29.543Z,21.10
2022-08-07T07:50:35.612Z,21.10
2022-08-07T07:52:44.529Z,21.10
2022-08-07T07:55:14.406Z,21.20
2022-08-07T07:57:51.988Z,21.40
2022-08-07T08:00:20.958Z,21.40
2022-08-07T08:03:05.188Z,21.40
2022-08-07T08:05:50.503Z,21.70
2022-08-07T08:08:34.347Z,21.60
2022-08-07T08:11:08.433Z,21.90
2022-08-07T08:13:53.032Z,22.00
2022-08-07T08:18:36.530Z,22.10
2022-08-07T08:20:15.999Z,22.40
2022-08-07T08:22:16.105Z,22.50
2022-08-07T08:25:18.466Z,22.50
2022-08-07T08:27:56.957Z,22.80
2022-08-07T08:30:29.023Z,22.70
2022-08-07T08:32:59.597Z,22.90
2022-08-07T08:35:28.515Z,22.90
2022-08-07T08:38:03.453Z,23.00
2022-08-07T08:40:37.664Z,23.00
2022-08-07T08:43:42.482Z,23.10
2022-08-07T08:46:09.470Z,23.20
2022-08-07T08:48:38.964Z,23.30
2022-08-07T08:51:14.787Z,23.40
2022-08-07T08:54:18.780Z,23.50
2022-08-07T08:56:47.995Z,23.60
2022-08-07T08:59:26.284Z,23.50
2022-08-07T09:02:15.681Z,23.70
2022-08-07T09:04:45.311Z,23.60
2022-08-07T09:07:16.389Z,23.80
2022-08-07T09:09:57.020Z,23.90
2022-08-07T09:12:42.069Z,24.10
2022-08-07T09:16:22.086Z,24.10
2022-08-07T09:18:36.749Z,24.00
2022-08-07T09:21:13.771Z,24.20
2022-08-07T09:24:29.074Z,24.40
2022-08-07T09:27:13.439Z,24.50
2022-08-07T09:30:03.834Z,24.50
2022-08-07T09:32:46.651Z,24.70
2022-08-07T09:36:02.952Z,24.80
2022-08-07T09:38:16.032Z,24.90
2022-08-07T09:40:50.113Z,25.10
2022-08-07T09:44:03.477Z,25.20
2022-08-07T09:47:51.467Z,25.20
2022-08-07T09:50:00.405Z,25.40
2022-08-07T09:52:35.369Z,25.40
2022-08-07T09:56:02.684Z,25.40
2022-08-07T09:58:13.161Z,25.60
2022-08-07T10:00:59.220Z,25.60
2022-08-07T10:04:07.118Z,25.70
2022-08-07T10:06:24.597Z,25.80
2022-08-07T10:09:05.085Z,25.90
2022-08-07T10:12:03.336Z,26.20
2022-08-07T10:14:31.328Z,26.20
2022-08-07T10:17:14.234Z,26.30
2022-08-07T10:19:58.438Z,26.50
2022-08-07T10:22:33.700Z,26.40
2022-08-07T10:25:22.544Z,26.60
2022-08-07T10:28:08.238Z,26.60
2022-08-07T10:30:57.097Z,26.70
2022-08-07T10:34:14.615Z,26.70
2022-08-07T10:36:56.510Z,26.80
2022-08-07T10:39:41.448Z,26.70
2022-08-07T10:42:21.196Z,27.00
2022-08-07T10:44:51.239Z,27.00
2022-08-07T10:47:50.583Z,27.00
2022-08-07T10:50:25.880Z,27.20
2022-08-07T10:53:09.405Z,27.30
2022-08-07T10:56:02.245Z,27.40
2022-08-07T10:58:32.981Z,27.40
2022-08-07T11:01:18.765Z,27.40
2022-08-07T11:04:01.267Z,27.50
2022-08-07T11:06:56.255Z,27.50
2022-08-07T11:10:08.856Z,27.70
2022-08-07T11:12:37.922Z,27.80
2022-08-07T11:15:14.677Z,27.90
2022-08-07T11:17:48.425Z,27.90
2022-08-07T11:20:19.488Z,27.80
2022-08-07T11:22:53.700Z,27.90
2022-08-07T11:25:24.332Z,28.00
2022-08-07T11:28:02.366Z,28.10
2022-08-07T11:30:42.017Z,28.20
2022-08-07T11:33:14.208Z,28.30
2022-08-07T11:35:59.736Z,28.30
2022-08-07T11:38:31.788Z,28.30
2022-08-07T11:41:02.103Z,28.20
2022-08-07T11:43:54.655Z,28.30
2022-08-07T11:46:37.991Z,28.40
2022-08-07T11:49:50.172Z,28.50
2022-08-07T11:52:28.993Z,28.50
2022-08-07T11:54:55.967Z,28.50
2022-08-07T11:57:59.970Z,28.50
2022-08-07T12:00:19.117Z,28.60
2022-08-07T12:03:01.925Z,28.70
2022-08-07T12:05:47.200Z,28.70
2022-08-07T12:08:25.692Z,28.80
2022-08-07T12:11:20.264Z,28.80
2022-08-07T12:14:08.423Z,28.80
2022-08-07T12:16:40.222Z,28.90
2022-08-07T12:19:07.720Z,28.90
2022-08-07T12:22:38.819Z,28.90
2022-08-07T12:25:02.292Z,29.00
2022-08-07T12:28:09.216Z,29.00
2022-08-07T12:30:26.042Z,29.10
2022-08-07T12:32:53.535Z,29.20
2022-08-07T12:35:20.721Z,29.20
2022-08-07T12:38:10.806Z,29.10
2022-08-07T12:40:48.912Z,29.20
2022-08-07T12:44:03.525Z,29.30
2022-08-07T12:46:32.315Z,29.30
2022-08-07T12:49:10.165Z,29.30
2022-08-07T12:52:11.841Z,29.30
2022-08-07T12:54:43.139Z,29.40
2022-08-07T12:57:24.702Z,29.40
2022-08-07T12:59:55.704Z,29.40
2022-08-07T13:02:24.977Z,29.40
2022-08-07T13:05:02.837Z,29.50
2022-08-07T13:08:14.007Z,29.60
2022-08-07T13:10:51.540Z,29.60
2022-08-07T13:13:48.261Z,29.60
2022-08-07T13:16:25.033Z,29.60
2022-08-07T13:19:11.443Z,29.70
2022-08-07T13:22:19.557Z,29.70
2022-08-07T13:25:15.167Z,29.70
2022-08-07T13:28:10.806Z,29.80
2022-08-07T13:30:43.794Z,29.80
2022-08-07T13:34:30.714Z,29.90
2022-08-07T13:36:17.348Z,29.90
2022-08-07T13:38:47.601Z,29.90
2022-08-07T13:41:23.147Z,29.90
2022-08-07T13:43:55.903Z,30.00
2022-08-07T13:46:31.364Z,30.00
2022-08-07T13:49:00.964Z,30.00
2022-08-07T13:52:22.697Z,30.10
2022-08-07T13:54:23.626Z,30.10
2022-08-07T13:56:56.118Z,30.20
2022-08-07T13:59:31.196Z,30.20
2022-08-07T14:02:08.492Z,30.20
2022-08-07T14:04:49.418Z,30.20
2022-08-07T14:07:18.268Z,30.20
2022-08-07T14:10:17.623Z,30.30
2022-08-07T14:12:49.428Z,30.30
2022-08-07T14:15:34.988Z,30.40
2022-08-07T14:18:23.684Z,30.40
2022-08-07T14:21:08.332Z,30.40
2022-08-07T14:24:00.826Z,30.40
2022-08-07T14:26:31.991Z,30.50
2022-08-07T14:29:08.435Z,30.50
2022-08-07T14:31:43.073Z,30.50
2022-08-07T14:34:22.745Z,30.50
2022-08-07T14:36:56.264Z,30.60
2022-08-07T14:40:17.944Z,30.60
2022-08-07T14:42:19.489Z,30.60
2022-08-07T14:44:51.817Z,30.60
2022-08-07T14:47:18.940Z,30.70
2022-08-07T14:49:56.818Z,30.70
2022-08-07T14:52:28.796Z,30.70
2022-08-07T14:54:58.600Z,30.70
2022-08-07T15:00:12.726Z,30.70
2022-08-07T15:02:57.226Z,30.70
2022-08-07T15:05:24.324Z,30.70
2022-08-07T15:07:52.232Z,30.70
2022-08-07T15:10:26.328Z,30.70
2022-08-07T15:13:00.897Z,30.70
2022-08-07T15:15:38.551Z,30.70
2022-08-07T15:18:14.557Z,30.70
2022-08-07T15:20:59.001Z,30.80
2022-08-07T15:26:22.230Z,30.80
2022-08-07T15:32:01.554Z,30.80
2022-08-07T15:34:50.744Z,30.80
2022-08-07T15:38:04.775Z,30.80
2022-08-07T15:40:34.478Z,30.80
2022-08-07T15:46:32.284Z,30.80
2022-08-07T15:49:11.991Z,30.80
2022-08-07T15:54:34.161Z,30.80
2022-08-07T15:57:00.940Z,30.80
2022-08-07T15:59:38.976Z,30.80
2022-08-07T16:02:07.204Z,30.70
2022-08-07T16:04:37.894Z,30.70
2022-08-07T16:07:05.880Z,30.70
2022-08-07T16:09:53.972Z,30.70
2022-08-07T16:12:30.637Z,30.70
2022-08-07T16:14:59.211Z,30.70
2022-08-07T16:18:02.159Z,30.70
2022-08-07T16:20:37.411Z,30.70
2022-08-07T16:23:09.917Z,30.70
2022-08-07T16:25:54.808Z,30.70
2022-08-07T16:30:05.662Z,30.70
2022-08-07T16:31:57.311Z,30.60
2022-08-07T16:34:39.615Z,30.40
2022-08-07T16:38:03.968Z,30.20
2022-08-07T16:40:23.370Z,30.10
2022-08-07T16:43:15.747Z,30.20
2022-08-07T16:46:47.543Z,30.20
2022-08-07T16:50:20.673Z,30.10
2022-08-07T16:52:51.073Z,30.00
2022-08-07T16:55:03.160Z,29.90
2022-08-07T16:58:01.514Z,30.00
2022-08-07T17:00:29.581Z,29.90
2022-08-07T17:03:17.265Z,29.80
2022-08-07T17:06:02.200Z,29.80
2022-08-07T17:09:09.328Z,29.80
2022-08-07T17:12:01.363Z,29.70
2022-08-07T17:14:34.090Z,29.70
2022-08-07T17:17:02.179Z,29.50
2022-08-07T17:20:01.604Z,29.50
2022-08-07T17:22:30.109Z,29.40
2022-08-07T17:25:05.032Z,29.30
2022-08-07T17:27:50.836Z,29.30
2022-08-07T17:30:26.737Z,29.20
2022-08-07T17:34:09.315Z,29.20
2022-08-07T17:36:20.429Z,29.00
2022-08-07T17:38:59.521Z,28.90
2022-08-07T17:42:02.532Z,28.90
2022-08-07T17:44:41.466Z,28.80
2022-08-07T17:47:43.499Z,28.70
2022-08-07T17:50:42.290Z,28.60
2022-08-07T17:53:59.762Z,28.50
2022-08-07T17:56:29.809Z,28.40
2022-08-07T17:58:56.978Z,28.30
2022-08-07T18:01:45.871Z,28.20
2022-08-07T18:04:38.112Z,28.10
2022-08-07T18:07:20.985Z,28.20
2022-08-07T18:10:05.806Z,28.20
2022-08-07T18:12:52.887Z,28.10
2022-08-07T18:15:22.849Z,28.10
2022-08-07T18:18:45.529Z,28.10
2022-08-07T18:21:02.300Z,28.00
2022-08-07T18:23:58.393Z,28.00
2022-08-07T18:26:33.808Z,27.90
2022-08-07T18:29:00.236Z,27.90
2022-08-07T18:31:38.976Z,27.80
2022-08-07T18:34:37.889Z,27.80
2022-08-07T18:36:58.437Z,27.70
2022-08-07T18:40:06.997Z,27.60
2022-08-07T18:42:44.793Z,27.30
2022-08-07T18:45:44.364Z,27.10
2022-08-07T18:48:00.807Z,27.00
2022-08-07T18:50:43.896Z,26.90
2022-08-07T18:53:39.838Z,26.80
2022-08-07T18:56:06.686Z,26.60
2022-08-07T18:58:36.075Z,26.50
2022-08-07T19:02:17.039Z,26.40
2022-08-07T19:04:32.217Z,26.30
2022-08-07T19:07:09.638Z,26.20
2022-08-07T19:09:59.172Z,26.10
2022-08-07T19:12:48.964Z,26.00
2022-08-07T19:16:04.905Z,25.90
2022-08-07T19:18:34.678Z,25.80
2022-08-07T19:21:51.176Z,25.70
2022-08-07T19:24:10.444Z,25.60
2022-08-07T19:28:28.357Z,25.50
2022-08-07T19:31:05.372Z,25.50
2022-08-07T19:32:27.767Z,25.40
2022-08-07T19:35:00.269Z,25.30
2022-08-07T19:37:57.116Z,25.20
2022-08-07T19:40:15.103Z,25.10
2022-08-07T19:42:43.129Z,25.00
2022-08-07T19:46:01.109Z,25.20
2022-08-07T19:48:01.328Z,25.20
2022-08-07T19:50:43.803Z,25.20
2022-08-07T19:54:32.447Z,25.10
2022-08-07T19:56:06.843Z,25.10
2022-08-07T19:58:53.193Z,25.00
2022-08-07T20:01:21.512Z,25.00
2022-08-07T20:03:49.021Z,24.90
2022-08-07T20:06:28.486Z,24.90
2022-08-07T20:09:01.778Z,24.90
2022-08-07T20:12:01.392Z,24.80
2022-08-07T20:14:31.826Z,24.80
2022-08-07T20:17:00.218Z,24.70
2022-08-07T20:19:48.325Z,24.70
2022-08-07T20:22:18.095Z,24.60
2022-08-07T20:25:00.214Z,24.60
2022-08-07T20:27:47.441Z,24.50
2022-08-07T20:30:14.376Z,24.50
2022-08-07T20:32:50.393Z,24.40
2022-08-07T20:35:26.465Z,24.40
2022-08-07T20:37:58.423Z,24.30
2022-08-07T20:40:32.493Z,24.30
2022-08-07T20:43:01.092Z,24.20
2022-08-07T20:45:33.129Z,24.20
2022-08-07T20:48:28.852Z,24.10
2022-08-07T20:50:58.500Z,24.10
2022-08-07T20:53:25.942Z,24.10
2022-08-07T20:56:12.408Z,24.00
2022-08-07T20:58:47.270Z,24.00
2022-08-07T21:01:19.383Z,23.90
2022-08-07T21:04:18.776Z,23.90
2022-08-07T21:06:36.228Z,23.80
2022-08-07T21:09:07.578Z,23.80
2022-08-07T21:11:51.005Z,23.70
2022-08-07T21:14:33.953Z,23.70
2022-08-07T21:18:00.602Z,23.60
2022-08-07T21:20:01.062Z,23.60
2022-08-07T21:22:33.295Z,23.50
2022-08-07T21:25:12.874Z,23.50
2022-08-07T21:27:47.131Z,23.50
2022-08-07T21:30:15.200Z,23.40
2022-08-07T21:33:01.079Z,23.40
2022-08-07T21:36:06.528Z,23.30
2022-08-07T21:38:44.419Z,23.30
2022-08-07T21:41:19.350Z,23.20
2022-08-07T21:43:56.838Z,23.20
2022-08-07T21:46:36.108Z,23.10
2022-08-07T21:49:02.550Z,23.10
2022-08-07T21:51:51.030Z,23.10
2022-08-07T21:54:35.590Z,23.00
2022-08-07T21:57:31.317Z,23.00
2022-08-07T22:00:22.066Z,22.90
2022-08-07T22:02:49.047Z,22.90
2022-08-07T22:05:46.158Z,22.80
2022-08-07T22:08:12.349Z,22.80
2022-08-07T22:10:42.183Z,22.80
2022-08-07T22:13:12.695Z,22.70
2022-08-07T22:16:42.750Z,22.70
2022-08-07T22:18:49.133Z,22.60
2022-08-07T22:21:19.337Z,22.60
2022-08-07T22:23:57.279Z,22.60
2022-08-07T22:26:28.453Z,22.50
2022-08-07T22:29:08.950Z,22.50
2022-08-07T22:31:59.430Z,22.50
2022-08-07T22:34:49.581Z,22.40
2022-08-07T22:37:19.812Z,22.40
2022-08-07T22:39:52.988Z,22.30
2022-08-07T22:42:25.942Z,22.30
2022-08-07T22:44:58.251Z,22.30
2022-08-07T22:47:36.264Z,22.20
2022-08-07T22:50:32.993Z,22.20
2022-08-07T22:53:02.960Z,22.10
2022-08-07T22:55:34.052Z,22.10
2022-08-07T22:58:15.862Z,22.10
2022-08-07T23:00:57.960Z,22.00
2022-08-07T23:03:28.600Z,22.00
2022-08-07T23:06:15.390Z,22.00
2022-08-07T23:10:00.680Z,21.90
2022-08-07T23:12:04.945Z,21.90
2022-08-07T23:14:36.504Z,21.80
2022-08-07T23:17:22.305Z,21.80
2022-08-07T23:20:51.202Z,21.80
2022-08-07T23:23:10.349Z,21.70
2022-08-07T23:26:02.245Z,21.70
2022-08-07T23:28:53.373Z,21.60
2022-08-07T23:34:19.695Z,21.60
2022-08-07T23:34:46.729Z,21.60
2022-08-07T23:37:23.602Z,21.50
2022-08-07T23:39:58.982Z,21.50
2022-08-07T23:42:53.433Z,21.40
2022-08-07T23:45:50.033Z,21.40
2022-08-07T23:48:25.141Z,21.40
2022-08-07T23:50:59.000Z,21.40
2022-08-07T23:53:51.315Z,21.30
2022-08-07T23:56:21.074Z,21.30
2022-08-07T23:59:10.306Z,21.20
